createdAt,value
2022-12-04T00:02:06.084Z,-0.27
2022-12-04T00:04:32.696Z,-0.29
2022-12-04T00:06:59.303Z,-0.30
2022-12-04T00:09:25.846Z,-0.33
2022-12-04T00:11:52.276Z,-0.34
2022-12-04T00:14:18.819Z,-0.31
2022-12-04T00:16:45.369Z,-0.29
2022-12-04T00:19:11.887Z,-0.30
2022-12-04T00:21:38.412Z,-0.30
2022-12-04T00:24:05.443Z,-0.30
2022-12-04T00:26:31.874Z,-0.29
2022-12-04T00:28:59.148Z,-0.28
2022-12-04T00:31:27.726Z,-0.29
2022-12-04T00:33:54.301Z,-0.30
2022-12-04T00:36:23.772Z,-0.30
2022-12-04T00:38:50.704Z,-0.32
2022-12-04T00:41:19.486Z,-0.30
2022-12-04T00:43:46.077Z,-0.30
2022-12-04T00:46:12.906Z,-0.30
2022-12-04T00:48:39.901Z,-0.30
2022-12-04T00:51:10.021Z,-0.31
2022-12-04T00:53:36.888Z,-0.31
2022-12-04T00:56:11.197Z,-0.30
2022-12-04T00:58:37.687Z,-0.28
2022-12-04T01:01:07.736Z,-0.30
2022-12-04T01:03:34.729Z,-0.29
2022-12-04T01:06:04.402Z,-0.29
2022-12-04T01:08:30.878Z,-0.30
2022-12-04T01:10:57.519Z,-0.29
2022-12-04T01:13:25.079Z,-0.30
2022-12-04T01:15:52.520Z,-0.33
2022-12-04T01:18:19.122Z,-0.34
2022-12-04T01:20:51.267Z,-0.31
2022-12-04T01:23:18.847Z,-0.31
2022-12-04T01:25:56.838Z,-0.29
2022-12-04T01:28:24.092Z,-0.29
2022-12-04T01:30:57.840Z,-0.29
2022-12-04T01:33:24.322Z,-0.30
2022-12-04T01:35:55.574Z,-0.30
2022-12-04T01:38:22.303Z,-0.28
2022-12-04T01:40:49.460Z,-0.29
2022-12-04T01:43:16.978Z,-0.29
2022-12-04T01:45:45.626Z,-0.28
2022-12-04T01:48:24.366Z,-0.30
2022-12-04T01:50:53.638Z,-0.34
2022-12-04T01:53:20.994Z,-0.31
2022-12-04T01:55:48.600Z,-0.32
2022-12-04T01:58:17.412Z,-0.32
2022-12-04T02:00:47.397Z,-0.31
2022-12-04T02:03:17.887Z,-0.30
2022-12-04T02:05:44.336Z,-0.31
2022-12-04T02:08:11.078Z,-0.29
2022-12-04T02:10:53.960Z,-0.27
2022-12-04T02:13:31.151Z,-0.28
2022-12-04T02:16:13.281Z,-0.26
2022-12-04T02:18:56.765Z,-0.28
2022-12-04T02:21:40.465Z,-0.27
2022-12-04T02:24:37.230Z,-0.28
2022-12-04T02:27:27.734Z,-0.26
2022-12-04T02:30:05.498Z,-0.25
2022-12-04T02:32:43.781Z,-0.23
2022-12-04T02:35:20.326Z,-0.26
2022-12-04T02:37:54.014Z,-0.24
2022-12-04T02:40:31.438Z,-0.24
2022-12-04T02:43:07.672Z,-0.22
2022-12-04T02:45:41.593Z,-0.22
2022-12-04T02:48:08.535Z,-0.21
2022-12-04T02:50:40.436Z,-0.21
2022-12-04T02:53:24.623Z,-0.21
2022-12-04T02:55:56.634Z,-0.23
2022-12-04T02:58:42.351Z,-0.23
2022-12-04T03:01:21.866Z,-0.23
2022-12-04T03:04:05.715Z,-0.22
2022-12-04T03:06:36.462Z,-0.22
2022-12-04T03:09:10.548Z,-0.25
2022-12-04T03:11:40.263Z,-0.26
2022-12-04T03:14:24.499Z,-0.24
2022-12-04T03:16:55.046Z,-0.25
2022-12-04T03:19:26.951Z,-0.24
2022-12-04T03:21:59.699Z,-0.25
2022-12-04T03:24:59.247Z,-0.24
2022-12-04T03:27:25.656Z,-0.24
2022-12-04T03:30:03.479Z,-0.23
2022-12-04T03:32:36.412Z,-0.21
2022-12-04T03:35:37.238Z,-0.21
2022-12-04T03:38:16.595Z,-0.19
2022-12-04T03:41:13.464Z,-0.22
2022-12-04T03:44:05.804Z,-0.26
2022-12-04T03:46:40.279Z,-0.26
2022-12-04T03:49:26.228Z,-0.24
2022-12-04T03:52:04.460Z,-0.25
2022-12-04T03:54:35.126Z,-0.26
2022-12-04T03:57:12.757Z,-0.26
2022-12-04T03:59:43.966Z,-0.26
2022-12-04T04:02:14.767Z,-0.23
2022-12-04T04:04:45.003Z,-0.23
2022-12-04T04:07:15.964Z,-0.24
2022-12-04T04:09:47.584Z,-0.26
2022-12-04T04:12:19.828Z,-0.25
2022-12-04T04:15:12.114Z,-0.25
2022-12-04T04:18:02.179Z,-0.23
2022-12-04T04:21:00.269Z,-0.23
2022-12-04T04:24:00.987Z,-0.24
2022-12-04T04:26:34.133Z,-0.25
2022-12-04T04:29:00.608Z,-0.24
2022-12-04T04:31:48.534Z,-0.23
2022-12-04T04:34:37.775Z,-0.25
2022-12-04T04:37:25.463Z,-0.25
2022-12-04T04:40:05.595Z,-0.25
2022-12-04T04:42:43.613Z,-0.26
2022-12-04T04:45:25.590Z,-0.26
2022-12-04T04:47:51.951Z,-0.26
2022-12-04T04:50:19.794Z,-0.25
2022-12-04T04:52:50.838Z,-0.26
2022-12-04T04:55:18.217Z,-0.26
2022-12-04T04:57:44.834Z,-0.28
2022-12-04T05:00:18.123Z,-0.26
2022-12-04T05:02:45.419Z,-0.26
2022-12-04T05:05:13.290Z,-0.30
2022-12-04T05:07:39.856Z,-0.31
2022-12-04T05:10:07.073Z,-0.29
2022-12-04T05:12:33.467Z,-0.30
2022-12-04T05:14:59.948Z,-0.30
2022-12-04T05:17:26.397Z,-0.30
2022-12-04T05:19:59.275Z,-0.28
2022-12-04T05:22:36.875Z,-0.28
2022-12-04T05:25:04.394Z,-0.27
2022-12-04T05:27:30.909Z,-0.30
2022-12-04T05:29:58.597Z,-0.29
2022-12-04T05:32:27.445Z,-0.30
2022-12-04T05:34:55.957Z,-0.29
2022-12-04T05:37:23.278Z,-0.30
2022-12-04T05:39:49.792Z,-0.31
2022-12-04T05:42:16.430Z,-0.31
2022-12-04T05:44:42.820Z,-0.32
2022-12-04T05:47:09.681Z,-0.30
2022-12-04T05:49:36.167Z,-0.31
2022-12-04T05:52:04.516Z,-0.31
2022-12-04T05:54:30.960Z,-0.31
2022-12-04T05:56:57.379Z,-0.28
2022-12-04T05:59:24.090Z,-0.27
2022-12-04T06:01:50.598Z,-0.29
2022-12-04T06:04:17.166Z,-0.30
2022-12-04T06:06:43.757Z,-0.29
2022-12-04T06:09:11.479Z,-0.28
2022-12-04T06:11:40.421Z,-0.28
2022-12-04T06:14:08.931Z,-0.29
2022-12-04T06:16:38.536Z,-0.29
2022-12-04T06:19:08.812Z,-0.28
2022-12-04T06:21:37.636Z,-0.31
2022-12-04T06:24:05.261Z,-0.29
2022-12-04T06:26:31.717Z,-0.28
2022-12-04T06:28:59.908Z,-0.28
2022-12-04T06:31:28.245Z,-0.28
2022-12-04T06:33:56.055Z,-0.27
2022-12-04T06:36:23.517Z,-0.27
2022-12-04T06:38:51.410Z,-0.26
2022-12-04T06:41:19.931Z,-0.25
2022-12-04T06:43:46.451Z,-0.24
2022-12-04T06:46:15.809Z,-0.24
2022-12-04T06:48:42.720Z,-0.24
2022-12-04T06:51:15.611Z,-0.24
2022-12-04T06:53:42.742Z,-0.24
2022-12-04T06:56:13.011Z,-0.23
2022-12-04T06:58:39.985Z,-0.22
2022-12-04T07:01:11.987Z,-0.24
2022-12-04T07:03:39.200Z,-0.23
2022-12-04T07:06:15.027Z,-0.23
2022-12-04T07:08:42.147Z,-0.24
2022-12-04T07:11:09.175Z,-0.22
2022-12-04T07:13:35.560Z,-0.24
2022-12-04T07:16:03.890Z,-0.24
2022-12-04T07:18:31.814Z,-0.23
2022-12-04T07:20:58.871Z,-0.21
2022-12-04T07:23:25.610Z,-0.21
2022-12-04T07:25:52.039Z,-0.21
2022-12-04T07:28:18.440Z,-0.21
2022-12-04T07:30:44.944Z,-0.21
2022-12-04T07:33:11.378Z,-0.19
2022-12-04T07:35:37.851Z,-0.21
2022-12-04T07:38:04.402Z,-0.21
2022-12-04T07:40:30.873Z,-0.21
2022-12-04T07:42:57.386Z,-0.20
2022-12-04T07:45:23.835Z,-0.20
2022-12-04T07:47:50.341Z,-0.20
2022-12-04T07:50:16.811Z,-0.20
2022-12-04T07:52:43.242Z,-0.19
2022-12-04T07:55:09.755Z,-0.17
2022-12-04T07:57:36.189Z,-0.16
2022-12-04T08:00:03.483Z,-0.16
2022-12-04T08:02:38.676Z,-0.16
2022-12-04T08:05:05.411Z,-0.16
2022-12-04T08:07:32.185Z,-0.15
2022-12-04T08:09:58.779Z,-0.14
2022-12-04T08:12:25.374Z,-0.14
2022-12-04T08:14:51.910Z,-0.13
2022-12-04T08:17:18.445Z,-0.12
2022-12-04T08:19:44.994Z,-0.10
2022-12-04T08:22:11.464Z,-0.08
2022-12-04T08:24:37.879Z,-0.06
2022-12-04T08:27:04.354Z,-0.05
2022-12-04T08:29:30.848Z,-0.05
2022-12-04T08:31:57.292Z,-0.03
2022-12-04T08:34:23.949Z,-0.03
2022-12-04T08:36:50.523Z,-0.05
2022-12-04T08:39:16.949Z,-0.04
2022-12-04T08:41:43.491Z,-0.02
2022-12-04T08:44:10.357Z,0.02
2022-12-04T08:46:36.929Z,0.02
2022-12-04T08:49:03.509Z,0.03
2022-12-04T08:51:32.106Z,0.03
2022-12-04T08:54:01.001Z,0.02
2022-12-04T08:56:29.756Z,0.03
2022-12-04T08:58:57.090Z,0.01
2022-12-04T09:01:25.424Z,0.04
2022-12-04T09:03:52.381Z,0.04
2022-12-04T09:06:19.033Z,0.05
2022-12-04T09:08:45.524Z,0.06
2022-12-04T09:11:15.029Z,0.04
2022-12-04T09:13:42.026Z,0.02
2022-12-04T09:16:11.532Z,0.00
2022-12-04T09:18:38.731Z,0.03
2022-12-04T09:21:08.991Z,0.04
2022-12-04T09:23:36.809Z,0.06
2022-12-04T09:26:03.953Z,0.07
2022-12-04T09:28:30.402Z,0.06
2022-12-04T09:31:02.199Z,0.05
2022-12-04T09:33:30.458Z,0.04
2022-12-04T09:36:01.482Z,0.06
2022-12-04T09:38:28.962Z,0.06
2022-12-04T09:41:30.911Z,0.10
2022-12-04T09:44:06.255Z,0.12
2022-12-04T09:46:40.319Z,0.11
2022-12-04T09:49:41.962Z,0.13
2022-12-04T09:52:36.235Z,0.09
2022-12-04T09:55:04.722Z,0.10
2022-12-04T09:57:48.159Z,0.11
2022-12-04T10:00:17.828Z,0.11
2022-12-04T10:03:12.333Z,0.11
2022-12-04T10:06:06.689Z,0.09
2022-12-04T10:08:39.677Z,0.09
2022-12-04T10:11:17.394Z,0.12
2022-12-04T10:13:49.841Z,0.10
2022-12-04T10:16:28.324Z,0.09
2022-12-04T10:19:09.051Z,0.10
2022-12-04T10:21:48.590Z,0.13
2022-12-04T10:24:28.361Z,0.14
2022-12-04T10:26:58.078Z,0.14
2022-12-04T10:29:32.302Z,0.17
2022-12-04T10:32:13.787Z,0.18
2022-12-04T10:34:45.490Z,0.20
2022-12-04T10:37:13.984Z,0.21
2022-12-04T10:39:51.681Z,0.20
2022-12-04T10:42:44.446Z,0.19
2022-12-04T10:45:13.007Z,0.21
2022-12-04T10:47:45.066Z,0.18
2022-12-04T10:50:20.731Z,0.20
2022-12-04T10:52:47.472Z,0.22
2022-12-04T10:55:14.057Z,0.21
2022-12-04T10:57:46.579Z,0.21
2022-12-04T11:00:34.427Z,0.21
2022-12-04T11:03:08.383Z,0.24
2022-12-04T11:05:45.596Z,0.27
2022-12-04T11:08:38.071Z,0.29
2022-12-04T11:11:11.334Z,0.31
2022-12-04T11:13:38.838Z,0.31
2022-12-04T11:16:06.586Z,0.30
2022-12-04T11:18:45.927Z,0.31
2022-12-04T11:21:27.685Z,0.32
2022-12-04T11:23:54.512Z,0.35
2022-12-04T11:26:33.655Z,0.35
2022-12-04T11:29:01.893Z,0.33
2022-12-04T11:31:29.592Z,0.36
2022-12-04T11:34:02.917Z,0.36
2022-12-04T11:36:34.965Z,0.35
2022-12-04T11:39:13.444Z,0.39
2022-12-04T11:41:42.496Z,0.39
2022-12-04T11:44:30.046Z,0.41
2022-12-04T11:46:59.016Z,0.43
2022-12-04T11:49:26.874Z,0.46
2022-12-04T11:52:30.339Z,0.48
2022-12-04T11:55:06.082Z,0.50
2022-12-04T11:58:02.155Z,0.51
2022-12-04T12:00:30.949Z,0.51
2022-12-04T12:03:27.912Z,0.50
2022-12-04T12:06:00.301Z,0.53
2022-12-04T12:08:40.569Z,0.52
2022-12-04T12:11:10.580Z,0.55
2022-12-04T12:13:47.779Z,0.54
2022-12-04T12:16:29.951Z,0.54
2022-12-04T12:19:19.330Z,0.57
2022-12-04T12:22:05.147Z,0.58
2022-12-04T12:25:03.812Z,0.60
2022-12-04T12:27:42.464Z,0.62
2022-12-04T12:30:20.997Z,0.63
2022-12-04T12:33:00.889Z,0.63
2022-12-04T12:35:33.704Z,0.65
2022-12-04T12:38:05.688Z,0.66
2022-12-04T12:40:41.122Z,0.64
2022-12-04T12:43:16.080Z,0.65
2022-12-04T12:45:54.329Z,0.66
2022-12-04T12:48:26.894Z,0.69
2022-12-04T12:51:28.366Z,0.69
2022-12-04T12:53:55.366Z,0.71
2022-12-04T12:56:43.483Z,0.75
2022-12-04T12:59:20.185Z,0.75
2022-12-04T13:02:02.271Z,0.75
2022-12-04T13:04:40.438Z,0.77
2022-12-04T13:07:20.599Z,0.79
2022-12-04T13:09:56.534Z,0.76
2022-12-04T13:12:24.817Z,0.79
2022-12-04T13:14:51.246Z,0.82
2022-12-04T13:17:25.847Z,0.84
2022-12-04T13:19:56.287Z,0.82
2022-12-04T13:23:01.274Z,0.81
2022-12-04T13:25:51.607Z,0.84
2022-12-04T13:28:17.966Z,0.84
2022-12-04T13:30:57.053Z,0.85
2022-12-04T13:33:38.210Z,0.85
2022-12-04T13:36:35.577Z,0.83
2022-12-04T13:39:04.759Z,0.85
2022-12-04T13:41:35.842Z,0.88
2022-12-04T13:44:07.103Z,0.89
2022-12-04T13:46:37.679Z,0.89
2022-12-04T13:49:08.032Z,0.87
2022-12-04T13:51:45.933Z,0.86
2022-12-04T13:54:12.355Z,0.88
2022-12-04T13:56:44.315Z,0.89
2022-12-04T13:59:30.908Z,0.89
2022-12-04T14:02:06.468Z,0.89
2022-12-04T14:04:51.973Z,0.88
2022-12-04T14:07:39.972Z,0.87
2022-12-04T14:10:14.062Z,0.89
2022-12-04T14:12:43.899Z,0.89
2022-12-04T14:15:21.537Z,0.90
2022-12-04T14:18:17.705Z,0.90
2022-12-04T14:20:44.684Z,0.90
2022-12-04T14:23:19.968Z,0.91
2022-12-04T14:25:46.385Z,0.90
2022-12-04T14:28:24.765Z,0.89
2022-12-04T14:31:03.670Z,0.87
2022-12-04T14:33:32.630Z,0.87
2022-12-04T14:36:06.985Z,0.85
2022-12-04T14:38:33.999Z,0.83
2022-12-04T14:41:01.617Z,0.82
2022-12-04T14:43:39.518Z,0.83
2022-12-04T14:46:15.868Z,0.81
2022-12-04T14:49:18.374Z,0.82
2022-12-04T14:51:48.250Z,0.81
2022-12-04T14:54:39.091Z,0.81
2022-12-04T14:57:41.081Z,0.78
2022-12-04T15:00:19.398Z,0.76
2022-12-04T15:02:47.935Z,0.77
2022-12-04T15:05:31.570Z,0.80
2022-12-04T15:08:06.118Z,0.81
2022-12-04T15:10:53.808Z,0.81
2022-12-04T15:13:33.599Z,0.83
2022-12-04T15:16:19.803Z,0.82
2022-12-04T15:18:56.852Z,0.82
2022-12-04T15:21:28.246Z,0.79
2022-12-04T15:23:54.678Z,0.78
2022-12-04T15:26:24.680Z,0.76
2022-12-04T15:28:57.741Z,0.76
2022-12-04T15:31:35.261Z,0.77
2022-12-04T15:34:07.414Z,0.75
2022-12-04T15:36:45.768Z,0.76
2022-12-04T15:39:29.722Z,0.76
2022-12-04T15:42:19.102Z,0.77
2022-12-04T15:45:01.758Z,0.76
2022-12-04T15:47:31.054Z,0.77
2022-12-04T15:50:22.566Z,0.77
2022-12-04T15:52:55.155Z,0.78
2022-12-04T15:55:24.447Z,0.78
2022-12-04T15:57:54.079Z,0.81
2022-12-04T16:00:26.260Z,0.84
2022-12-04T16:02:53.729Z,0.88
2022-12-04T16:05:20.198Z,0.91
2022-12-04T16:07:52.548Z,0.93
2022-12-04T16:10:23.671Z,0.96
2022-12-04T16:12:55.174Z,0.96
2022-12-04T16:15:22.519Z,0.99
2022-12-04T16:17:49.211Z,1.00
2022-12-04T16:20:15.819Z,1.04
2022-12-04T16:22:42.503Z,1.07
2022-12-04T16:25:13.370Z,1.08
2022-12-04T16:27:39.869Z,1.11
2022-12-04T16:30:06.943Z,1.10
2022-12-04T16:32:34.189Z,1.06
2022-12-04T16:35:00.920Z,1.05
2022-12-04T16:37:28.536Z,1.06
2022-12-04T16:39:54.974Z,1.06
2022-12-04T16:42:27.515Z,1.07
2022-12-04T16:44:54.891Z,1.08
2022-12-04T16:47:22.239Z,1.10
2022-12-04T16:49:51.375Z,1.10
2022-12-04T16:52:19.142Z,1.11
2022-12-04T16:54:46.151Z,1.14
2022-12-04T16:57:12.628Z,1.16
2022-12-04T16:59:39.065Z,1.18
2022-12-04T17:02:15.695Z,1.21
2022-12-04T17:04:42.284Z,1.23
2022-12-04T17:07:08.730Z,1.24
2022-12-04T17:09:35.166Z,1.25
2022-12-04T17:12:01.576Z,1.26
2022-12-04T17:14:27.997Z,1.27
2022-12-04T17:16:55.073Z,1.28
2022-12-04T17:19:21.635Z,1.29
2022-12-04T17:21:48.043Z,1.32
2022-12-04T17:24:14.904Z,1.32
2022-12-04T17:26:41.606Z,1.34
2022-12-04T17:29:08.034Z,1.34
2022-12-04T17:31:34.518Z,1.36
2022-12-04T17:34:01.079Z,1.37
2022-12-04T17:36:27.754Z,1.37
2022-12-04T17:38:58.489Z,1.38
2022-12-04T17:41:25.360Z,1.38
2022-12-04T17:43:51.775Z,1.40
2022-12-04T17:46:21.734Z,1.38
2022-12-04T17:48:48.795Z,1.39
2022-12-04T17:51:18.710Z,1.41
2022-12-04T17:53:45.615Z,1.45
2022-12-04T17:56:16.216Z,1.47
2022-12-04T17:58:43.379Z,1.48
2022-12-04T18:01:16.140Z,1.48
2022-12-04T18:03:43.830Z,1.52
2022-12-04T18:06:40.656Z,1.51
2022-12-04T18:09:09.361Z,1.51
2022-12-04T18:11:38.018Z,1.53
2022-12-04T18:14:13.563Z,1.54
2022-12-04T18:16:42.862Z,1.56
2022-12-04T18:19:10.723Z,1.57
2022-12-04T18:21:37.343Z,1.58
2022-12-04T18:24:05.264Z,1.61
2022-12-04T18:26:35.510Z,1.61
2022-12-04T18:29:02.350Z,1.63
2022-12-04T18:31:29.330Z,1.64
2022-12-04T18:33:55.854Z,1.65
2022-12-04T18:36:24.831Z,1.68
2022-12-04T18:38:56.871Z,1.74
2022-12-04T18:41:23.791Z,1.67
2022-12-04T18:43:50.737Z,1.67
2022-12-04T18:46:18.355Z,1.67
2022-12-04T18:48:46.746Z,1.66
2022-12-04T18:51:29.531Z,1.67
2022-12-04T18:54:01.258Z,1.66
2022-12-04T18:56:28.522Z,1.66
2022-12-04T18:59:00.372Z,1.68
2022-12-04T19:01:27.264Z,1.68
2022-12-04T19:04:00.057Z,1.70
2022-12-04T19:06:31.488Z,1.70
2022-12-04T19:09:04.807Z,1.72
2022-12-04T19:11:31.878Z,1.68
2022-12-04T19:14:00.185Z,1.70
2022-12-04T19:16:26.816Z,1.67
2022-12-04T19:18:53.389Z,1.66
2022-12-04T19:21:20.250Z,1.66
2022-12-04T19:23:55.021Z,1.65
2022-12-04T19:26:21.518Z,1.65
2022-12-04T19:28:47.990Z,1.65
2022-12-04T19:31:19.683Z,1.63
2022-12-04T19:33:46.221Z,1.64
2022-12-04T19:36:13.945Z,1.64
2022-12-04T19:38:41.207Z,1.65
2022-12-04T19:41:11.929Z,1.67
2022-12-04T19:43:45.231Z,1.66
2022-12-04T19:46:15.136Z,1.68
2022-12-04T19:48:42.463Z,1.70
2022-12-04T19:51:14.390Z,1.70
2022-12-04T19:53:42.040Z,1.69
2022-12-04T19:56:12.031Z,1.68
2022-12-04T19:58:38.987Z,1.67
2022-12-04T20:01:07.038Z,1.67
2022-12-04T20:03:34.539Z,1.67
2022-12-04T20:06:22.833Z,1.68
2022-12-04T20:08:55.125Z,1.69
2022-12-04T20:11:22.436Z,1.71
2022-12-04T20:13:49.231Z,1.71
2022-12-04T20:16:18.275Z,1.71
2022-12-04T20:18:45.254Z,1.72
2022-12-04T20:21:12.671Z,1.71
2022-12-04T20:23:40.816Z,1.74
2022-12-04T20:26:09.731Z,1.75
2022-12-04T20:28:36.612Z,1.77
2022-12-04T20:31:12.801Z,1.80
2022-12-04T20:33:40.999Z,1.81
2022-12-04T20:36:08.643Z,1.80
2022-12-04T20:38:35.160Z,1.80
2022-12-04T20:41:06.735Z,1.80
2022-12-04T20:43:34.099Z,1.79
2022-12-04T20:46:00.845Z,1.81
2022-12-04T20:48:27.839Z,1.80
2022-12-04T20:50:54.308Z,1.82
2022-12-04T20:53:20.852Z,1.84
2022-12-04T20:55:54.925Z,1.85
2022-12-04T20:58:22.186Z,1.84
2022-12-04T21:00:48.979Z,1.83
2022-12-04T21:03:15.921Z,1.86
2022-12-04T21:05:48.658Z,1.87
2022-12-04T21:08:35.348Z,1.89
2022-12-04T21:11:02.920Z,1.87
2022-12-04T21:13:48.170Z,1.88
2022-12-04T21:16:14.865Z,1.89
2022-12-04T21:18:41.591Z,1.91
2022-12-04T21:21:08.201Z,1.93
2022-12-04T21:23:35.940Z,1.93
2022-12-04T21:26:02.863Z,1.95
2022-12-04T21:28:31.155Z,1.95
2022-12-04T21:31:03.203Z,1.97
2022-12-04T21:33:31.577Z,1.99
2022-12-04T21:36:07.084Z,1.98
2022-12-04T21:38:38.123Z,1.99
2022-12-04T21:41:06.354Z,1.99
2022-12-04T21:43:33.390Z,2.05
2022-12-04T21:46:09.474Z,2.05
2022-12-04T21:48:37.001Z,2.05
2022-12-04T21:51:16.859Z,2.04
2022-12-04T21:53:54.720Z,2.06
2022-12-04T21:56:25.059Z,2.06
2022-12-04T21:58:52.238Z,2.07
2022-12-04T22:01:21.433Z,2.09
2022-12-04T22:03:48.446Z,2.09
2022-12-04T22:06:15.034Z,2.09
2022-12-04T22:08:41.951Z,2.10
2022-12-04T22:11:09.881Z,2.12
2022-12-04T22:13:37.664Z,2.12
2022-12-04T22:16:06.377Z,2.15
2022-12-04T22:18:33.819Z,2.16
2022-12-04T22:21:08.524Z,2.15
2022-12-04T22:23:35.839Z,2.15
2022-12-04T22:26:13.726Z,2.16
2022-12-04T22:28:41.151Z,2.17
2022-12-04T22:31:11.567Z,2.19
2022-12-04T22:33:38.651Z,2.20
2022-12-04T22:36:08.514Z,2.21
2022-12-04T22:38:52.404Z,2.23
2022-12-04T22:41:24.252Z,2.24
2022-12-04T22:43:51.438Z,2.25
2022-12-04T22:46:18.230Z,2.26
2022-12-04T22:48:45.116Z,2.26
2022-12-04T22:51:19.949Z,2.29
2022-12-04T22:53:52.080Z,2.28
2022-12-04T22:56:20.106Z,2.29
2022-12-04T22:58:46.728Z,2.30
2022-12-04T23:01:24.667Z,2.31
2022-12-04T23:03:51.818Z,2.30
2022-12-04T23:06:20.237Z,2.33
2022-12-04T23:08:46.965Z,2.34
2022-12-04T23:11:16.743Z,2.34
2022-12-04T23:13:43.874Z,2.36
2022-12-04T23:16:12.396Z,2.37
2022-12-04T23:18:42.165Z,2.39
2022-12-04T23:21:11.794Z,2.38
2022-12-04T23:23:40.425Z,2.40
2022-12-04T23:26:13.567Z,2.42
2022-12-04T23:28:40.449Z,2.43
2022-12-04T23:31:07.040Z,2.45
2022-12-04T23:33:34.064Z,2.46
2022-12-04T23:36:01.842Z,2.45
2022-12-04T23:38:29.342Z,2.47
2022-12-04T23:41:07.900Z,2.49
2022-12-04T23:43:34.996Z,2.48
2022-12-04T23:46:07.264Z,2.49
2022-12-04T23:48:37.213Z,2.50
2022-12-04T23:51:03.779Z,2.51
2022-12-04T23:53:30.191Z,2.52
2022-12-04T23:56:16.569Z,2.54
2022-12-04T23:58:44.732Z,2.55
